Terminal Aerodrome Forecast
Issued by NWS

Home | Current Version | Previous Version | Graphics & Text | Print | Product List | Glossary On
Versions: 1 2 3 4 5 6 7 8 9 10 11 12 13
609
FTUS43 KICT 072333
TAFCNU
TAF
KCNU 072333Z 0800/0824 36011KT P6SM SCT012 BKN030
      TEMPO 0800/0802 3SM -SN BR BKN015
     FM080400 33011KT P6SM BKN035=

USA.gov is the U.S. government's official web portal to all federal, state and local government web resources and services.